Terminal Aerodrome Forecast
Issued by NWS Pittsburgh, PA

Current Version | Previous Version | Text Only | Print | Product List | Glossary Off
Versions: 1 2 3 4 5 6 7 8 9 10 11 12 13 14 15 16 17 18 19 20 21 22 23 24 25 26 27 28 29

000
FTUS41 KPBZ 260202 AAA
TAFPIT
TAF AMD
KPIT 260202Z 2602/2706 08008KT P6SM BKN250
     FM260400 VRB03KT 5SM BR SCT050
     FM261000 00000KT 3SM BR SCT015
     FM261400 16003KT P6SM SCT060=

USA.gov is the U.S. government's official web portal to all federal, state and local government web resources and services.